Time;durP1;ratioP1;P1;durP2;ratioP2;P2;SDS_P1;SDS_P2;PMS_P1;PMS_P2;Temp;Humidity;BMP_temperature;BMP_pressure;BME280_temperature;BME280_humidity;BME280_pressure;Samples;Min_cycle;Max_cycle;Signal;HPM_P1;HPM_P2
2021/08/29 00:02:59;;;;;;;10.90;7.30;;;;;;;14.08;72.56;100123.12;2144570;81;30138;-61
2021/08/29 00:06:02;;;;;;;10.45;7.45;;;;;;;14.06;72.58;100129.13;2162455;80;27605;-62
2021/08/29 00:09:06;;;;;;;12.03;8.50;;;;;;;14.02;72.59;100130.75;2148282;82;28670;-60
2021/08/29 00:12:10;;;;;;;10.13;7.08;;;;;;;13.98;72.67;100124.72;2120280;82;31732;-61
2021/08/29 00:15:13;;;;;;;12.47;8.70;;;;;;;13.94;72.64;100124.53;2087629;85;33018;-61
2021/08/29 00:18:15;;;;;;;10.68;7.65;;;;;;;13.91;72.73;100124.73;2105634;83;30506;-62
2021/08/29 00:21:18;;;;;;;11.50;7.47;;;;;;;13.87;72.76;100121.89;2127787;83;27686;-60
2021/08/29 00:24:20;;;;;;;12.18;7.85;;;;;;;13.84;72.76;100121.58;2088341;83;29517;-60
2021/08/29 00:27:22;;;;;;;11.70;8.13;;;;;;;13.80;72.91;100118.24;2087546;84;31069;-60
2021/08/29 00:30:26;;;;;;;10.70;7.55;;;;;;;13.77;72.94;100116.24;2114672;83;34043;-60
2021/08/29 00:33:28;;;;;;;10.33;7.20;;;;;;;13.76;73.05;100111.82;2115054;83;28785;-61
2021/08/29 00:36:31;;;;;;;12.15;7.05;;;;;;;13.74;73.08;100112.41;2105293;84;27681;-61
2021/08/29 00:39:36;;;;;;;10.13;7.55;;;;;;;13.71;73.12;100114.83;2105061;84;28687;-61
2021/08/29 00:42:40;;;;;;;10.28;7.97;;;;;;;13.69;73.17;100110.02;2132586;83;31031;-62
2021/08/29 00:45:44;;;;;;;11.20;8.10;;;;;;;13.67;73.26;100110.10;2125462;82;33002;-60
2021/08/29 00:48:53;;;;;;;12.15;7.47;;;;;;;13.64;73.27;100101.37;2071051;83;29388;-59
2021/08/29 00:52:04;;;;;;;11.53;8.05;;;;;;;13.61;73.30;100109.17;2046481;86;27592;-60
2021/08/29 00:55:09;;;;;;;13.30;8.95;;;;;;;13.58;73.32;100103.11;2046954;87;29860;-60
2021/08/29 00:58:11;;;;;;;11.65;8.78;;;;;;;13.53;73.33;100102.07;2081874;84;31024;-60
2021/08/29 01:01:18;;;;;;;12.07;8.05;;;;;;;13.50;73.41;100108.53;2100963;83;34181;-60
2021/08/29 01:04:23;;;;;;;14.60;8.10;;;;;;;13.46;73.39;100102.11;2046812;84;30337;-60
2021/08/29 01:07:28;;;;;;;;;;;;;;;13.43;73.43;100110.38;2087198;83;28156;-61
2021/08/29 01:10:58;;;;;;;13.00;8.25;;;;;;;13.39;73.53;100112.38;2153790;81;29439;-60
2021/08/29 01:14:04;;;;;;;12.20;8.38;;;;;;;13.32;73.57;100117.75;2131888;81;31078;-60
2021/08/29 01:17:09;;;;;;;13.18;8.33;;;;;;;13.29;73.75;100109.88;2139598;81;32964;-61
2021/08/29 01:20:22;;;;;;;11.55;8.63;;;;;;;13.25;73.77;100111.91;2170387;81;29333;-62
2021/08/29 01:23:25;;;;;;;11.33;8.43;;;;;;;13.19;73.81;100111.82;2137920;81;27632;-61
2021/08/29 01:26:44;;;;;;;13.62;9.30;;;;;;;13.17;73.87;100114.20;2131594;81;28639;-62
2021/08/29 01:29:47;;;;;;;15.58;10.03;;;;;;;13.15;74.03;100117.50;2092547;83;31186;-61
2021/08/29 01:32:49;;;;;;;13.70;8.98;;;;;;;13.13;74.21;100116.23;2050081;85;33927;-60
2021/08/29 01:35:52;;;;;;;12.73;9.45;;;;;;;13.11;74.30;100108.73;2090318;83;30164;-62
2021/08/29 01:38:54;;;;;;;12.93;8.95;;;;;;;13.12;74.43;100109.62;2102067;84;28318;-61
2021/08/29 01:41:56;;;;;;;12.25;8.88;;;;;;;13.10;74.44;100104.32;2101866;84;29764;-61
2021/08/29 01:44:59;;;;;;;13.50;9.00;;;;;;;13.09;74.51;100106.62;2084412;84;31389;-61
2021/08/29 01:48:01;;;;;;;12.78;8.95;;;;;;;13.08;74.64;100110.27;2072682;85;33364;-62
2021/08/29 01:51:03;;;;;;;16.00;9.70;;;;;;;13.08;74.68;100110.27;2072750;84;30354;-62
2021/08/29 01:54:09;;;;;;;12.50;9.30;;;;;;;13.08;74.78;100111.62;2100996;84;28297;-64
2021/08/29 01:57:13;;;;;;;14.53;10.48;;;;;;;13.06;74.87;100115.77;2072591;85;29689;-62
2021/08/29 02:00:16;;;;;;;13.88;10.30;;;;;;;13.07;74.95;100121.53;2072625;85;31037;-62
2021/08/29 02:03:19;;;;;;;12.95;9.75;;;;;;;13.07;75.07;100109.92;2094000;84;33851;-61
2021/08/29 02:06:35;;;;;;;15.10;10.43;;;;;;;13.09;75.11;100119.22;2140257;82;29004;-61
2021/08/29 02:09:43;;;;;;;13.78;9.53;;;;;;;13.07;75.18;100112.11;2133705;81;27687;-61
2021/08/29 02:12:50;;;;;;;14.53;10.32;;;;;;;13.07;75.27;100108.08;2123187;83;28564;-61
2021/08/29 02:15:59;;;;;;;14.90;10.20;;;;;;;13.09;75.35;100111.16;2125377;83;31970;-64
2021/08/29 02:19:01;;;;;;;13.15;9.63;;;;;;;13.01;75.34;100096.35;2109952;83;33044;-61
2021/08/29 02:22:04;;;;;;;13.18;10.28;;;;;;;13.11;75.49;100111.92;2119991;81;30522;-61
2021/08/29 02:25:08;;;;;;;14.78;10.13;;;;;;;13.12;75.48;100108.28;2128368;82;27788;-62
2021/08/29 02:28:10;;;;;;;12.33;10.30;;;;;;;13.11;75.49;100103.36;2140534;82;29449;-62
2021/08/29 02:31:11;;;;;;;13.20;9.88;;;;;;;13.12;75.62;100101.06;2132840;81;32677;-61
2021/08/29 02:34:14;;;;;;;13.35;10.05;;;;;;;13.13;75.59;100098.75;2155592;80;33349;-62
2021/08/29 02:37:16;;;;;;;16.60;9.98;;;;;;;13.14;75.60;100096.94;2098140;84;30214;-61
2021/08/29 02:40:19;;;;;;;15.65;10.30;;;;;;;13.13;75.72;100100.09;2098377;84;28266;-62
2021/08/29 02:43:21;;;;;;;14.83;10.38;;;;;;;13.14;75.76;100102.33;2098090;84;29855;-60
2021/08/29 02:46:24;;;;;;;16.48;10.45;;;;;;;13.13;75.80;100098.75;2122050;81;31858;-63
2021/08/29 02:49:26;;;;;;;17.75;11.50;;;;;;;13.14;75.85;100096.45;2119887;83;33398;-64
2021/08/29 02:52:28;;;;;;;12.45;10.10;;;;;;;13.15;75.89;100095.98;2128331;83;29340;-63
2021/08/29 02:55:31;;;;;;;14.68;11.18;;;;;;;13.16;75.99;100095.88;2127849;83;27718;-62
2021/08/29 02:58:34;;;;;;;14.20;11.10;;;;;;;13.16;75.99;100090.95;2118743;83;29610;-61
2021/08/29 03:01:37;;;;;;;13.25;11.20;;;;;;;13.16;76.03;100097.22;2124692;83;32132;-62
2021/08/29 03:04:40;;;;;;;13.58;10.98;;;;;;;13.18;76.07;100093.07;2123703;83;34125;-62
2021/08/29 03:07:42;;;;;;;14.05;10.78;;;;;;;13.17;76.11;100090.00;2118842;82;30269;-62
2021/08/29 03:10:44;;;;;;;14.90;10.38;;;;;;;13.17;76.12;100088.66;2123220;82;27736;-61
2021/08/29 03:13:48;;;;;;;12.88;10.75;;;;;;;13.17;76.09;100080.12;2105386;84;28785;-61
2021/08/29 03:16:51;;;;;;;17.90;10.68;;;;;;;13.15;76.07;100077.16;2105710;84;31880;-62
2021/08/29 03:19:55;;;;;;;13.85;11.22;;;;;;;13.14;76.14;100085.69;2078876;84;32723;-62
2021/08/29 03:23:09;;;;;;;15.13;10.70;;;;;;;13.15;76.24;100088.77;2050631;83;29330;-63
2021/08/29 03:26:12;;;;;;;16.40;11.63;;;;;;;13.14;76.21;100084.84;2052286;84;27719;-62
2021/08/29 03:29:16;;;;;;;12.53;9.85;;;;;;;13.15;76.21;100079.34;2079986;85;27637;-62
2021/08/29 03:32:22;;;;;;;17.20;11.28;;;;;;;13.14;76.21;100074.08;2089136;84;31822;-62
2021/08/29 03:35:25;;;;;;;16.07;10.08;;;;;;;13.14;76.26;100073.59;2078863;84;34220;-63
2021/08/29 03:38:27;;;;;;;16.07;10.15;;;;;;;13.13;76.31;100062.94;2071976;84;30148;-63
2021/08/29 03:41:31;;;;;;;14.78;10.15;;;;;;;13.11;76.28;100060.83;2086410;84;27795;-64
2021/08/29 03:44:34;;;;;;;13.15;11.65;;;;;;;13.10;76.31;100064.47;2102984;84;32381;-61
2021/08/29 03:47:36;;;;;;;16.45;11.30;;;;;;;13.07;76.37;100061.52;2078333;84;31527;-62
2021/08/29 03:50:39;;;;;;;16.77;11.15;;;;;;;13.06;76.38;100057.09;2137578;81;34123;-61
2021/08/29 03:53:41;;;;;;;17.40;11.28;;;;;;;13.04;76.49;100056.33;2168640;81;29339;-62
2021/08/29 03:56:44;;;;;;;13.70;10.75;;;;;;;13.02;76.52;100063.13;2165418;82;27607;-61
2021/08/29 03:59:46;;;;;;;16.23;11.00;;;;;;;13.01;76.62;100062.73;2111606;84;28127;-61
2021/08/29 04:02:49;;;;;;;15.00;11.05;;;;;;;13.01;76.58;100066.77;2164477;81;31973;-62
2021/08/29 04:05:52;;;;;;;13.78;10.93;;;;;;;13.00;76.61;100066.88;2122303;83;33800;-61
2021/08/29 04:08:56;;;;;;;16.90;11.55;;;;;;;12.97;76.67;100063.92;2150155;81;29327;-61
2021/08/29 04:12:01;;;;;;;16.40;11.03;;;;;;;12.96;76.72;100063.53;2136989;81;27966;-61
2021/08/29 04:15:05;;;;;;;14.47;11.08;;;;;;;12.97;76.76;100062.58;2137021;81;29086;-61
2021/08/29 04:18:09;;;;;;;14.07;10.43;;;;;;;12.97;76.77;100065.73;2128373;83;31843;-61
2021/08/29 04:21:13;;;;;;;16.00;12.33;;;;;;;12.98;76.77;100062.96;2122171;83;33871;-61
2021/08/29 04:24:16;;;;;;;17.52;11.22;;;;;;;12.98;76.87;100062.96;2136140;81;29493;-61
2021/08/29 04:27:19;;;;;;;16.17;11.30;;;;;;;12.99;76.86;100063.31;2169185;81;27547;-61
2021/08/29 04:30:22;;;;;;;15.48;10.78;;;;;;;13.02;76.89;100062.27;2173886;81;28837;-61
2021/08/29 04:33:26;;;;;;;16.00;12.60;;;;;;;13.05;76.92;100065.62;2173075;81;31235;-61
2021/08/29 04:36:30;;;;;;;13.78;11.38;;;;;;;13.10;77.00;100068.51;2173353;81;32941;-61
2021/08/29 04:39:34;;;;;;;18.30;14.13;;;;;;;13.13;76.99;100071.86;2149733;81;29335;-62
2021/08/29 04:42:35;;;;;;;14.98;12.25;;;;;;;13.15;77.01;100073.97;2147385;82;27619;-61
2021/08/29 04:45:37;;;;;;;17.30;12.68;;;;;;;13.18;77.02;100079.16;2174367;81;28749;-62
2021/08/29 04:48:39;;;;;;;17.62;12.95;;;;;;;13.24;77.07;100076.55;2150506;81;31942;-61
2021/08/29 04:51:41;;;;;;;19.50;13.58;;;;;;;13.30;77.14;100077.51;2146577;81;33377;-61
2021/08/29 04:54:43;;;;;;;18.62;14.45;;;;;;;13.36;77.14;100077.59;2147388;81;29943;-62
2021/08/29 04:57:45;;;;;;;18.37;14.85;;;;;;;13.42;77.12;100079.05;2138359;82;27706;-61
2021/08/29 05:00:47;;;;;;;19.55;15.05;;;;;;;13.45;77.06;100082.39;2128730;83;29852;-61
2021/08/29 05:03:49;;;;;;;21.15;14.23;;;;;;;13.52;77.07;100084.20;2143121;81;32271;-61
2021/08/29 05:06:51;;;;;;;17.57;14.13;;;;;;;13.58;77.06;100083.80;2164014;81;34077;-61
2021/08/29 05:09:53;;;;;;;22.80;14.05;;;;;;;13.66;76.98;100082.80;2127216;82;30218;-62
2021/08/29 05:12:55;;;;;;;19.62;16.10;;;;;;;13.71;77.00;100083.86;2102712;84;27823;-62
2021/08/29 05:15:56;;;;;;;19.27;15.03;;;;;;;13.81;77.03;100085.47;2097491;84;29224;-62
2021/08/29 05:18:58;;;;;;;20.68;16.48;;;;;;;13.91;76.92;100084.34;2097735;84;31384;-61
2021/08/29 05:22:00;;;;;;;19.62;15.23;;;;;;;14.00;76.90;100087.77;2095449;84;33418;-61
2021/08/29 05:25:03;;;;;;;19.02;14.70;;;;;;;14.11;76.85;100087.05;2098825;84;30205;-61
2021/08/29 05:28:06;;;;;;;18.30;14.68;;;;;;;14.18;76.69;100086.99;2049178;86;27767;-61
2021/08/29 05:31:07;;;;;;;20.77;14.23;;;;;;;14.24;76.56;100087.05;2091646;84;29921;-61
2021/08/29 05:34:09;;;;;;;17.62;14.65;;;;;;;14.32;76.61;100090.56;2102980;84;32359;-61
2021/08/29 05:37:11;;;;;;;17.73;14.65;;;;;;;14.40;76.47;100089.56;2093155;84;33381;-61
2021/08/29 05:40:14;;;;;;;20.95;14.23;;;;;;;14.43;76.22;100093.41;2112246;84;29778;-62
2021/08/29 05:43:16;;;;;;;17.73;14.45;;;;;;;14.49;76.19;100090.27;2112557;84;27688;-61
2021/08/29 05:46:18;;;;;;;18.20;13.08;;;;;;;14.57;76.12;100097.81;2058155;86;29878;-60
2021/08/29 05:49:20;;;;;;;18.02;15.38;;;;;;;14.67;76.07;100091.30;2110008;84;31033;-61
2021/08/29 05:52:22;;;;;;;16.23;13.50;;;;;;;14.79;75.99;100093.19;2102653;84;34062;-62
2021/08/29 05:55:25;;;;;;;16.77;13.55;;;;;;;14.89;75.85;100096.09;2099535;84;29390;-61
2021/08/29 05:58:27;;;;;;;17.30;14.78;;;;;;;15.02;75.90;100096.06;2102847;84;27802;-62
2021/08/29 06:01:29;;;;;;;15.53;13.00;;;;;;;15.16;75.80;100093.23;2099576;84;29698;-62
2021/08/29 06:04:31;;;;;;;16.87;13.88;;;;;;;15.31;75.65;100092.61;2048199;86;31657;-63
2021/08/29 06:07:33;;;;;;;19.20;13.85;;;;;;;15.47;75.48;100084.73;2036640;87;33346;-61
2021/08/29 06:10:35;;;;;;;14.68;12.20;;;;;;;15.64;75.37;100095.15;2042219;85;29379;-63
2021/08/29 06:13:39;;;;;;;15.55;13.35;;;;;;;15.83;75.04;100091.07;2053362;85;27655;-61
2021/08/29 06:16:40;;;;;;;15.30;13.70;;;;;;;15.94;74.75;100094.36;2072153;85;28784;-63
2021/08/29 06:19:43;;;;;;;14.80;13.20;;;;;;;16.07;74.58;100087.03;2074973;85;31007;-62
2021/08/29 06:22:45;;;;;;;14.90;13.05;;;;;;;16.27;74.50;100087.83;2074542;85;34182;-62
2021/08/29 06:25:47;;;;;;;14.10;12.60;;;;;;;16.25;74.18;100046.05;2074917;85;30618;-59
2021/08/29 06:28:49;;;;;;;14.25;11.97;;;;;;;16.62;73.77;100082.39;2075029;85;28169;-61
2021/08/29 06:31:54;;;;;;;13.95;12.07;;;;;;;16.83;73.47;100077.59;2074208;85;28747;-59
2021/08/29 06:34:56;;;;;;;;;;;;;;;17.08;73.27;100075.67;2077166;85;31796;-59
2021/08/29 06:38:00;;;;;;;15.35;12.85;;;;;;;17.31;72.77;100082.77;2075071;85;28846;-59
2021/08/29 06:41:03;;;;;;;14.40;11.83;;;;;;;17.60;72.86;100078.66;2079300;85;29762;-60
2021/08/29 06:44:06;;;;;;;13.18;11.43;;;;;;;17.96;72.22;100078.40;2081640;84;27645;-60
2021/08/29 06:47:09;;;;;;;13.20;11.83;;;;;;;18.19;71.49;100077.86;2041918;85;29963;-59
2021/08/29 06:50:12;;;;;;;11.55;10.00;;;;;;;18.44;71.35;100074.37;2023117;87;31601;-60
2021/08/29 06:53:15;;;;;;;11.63;10.43;;;;;;;18.73;70.83;100072.32;2022710;87;32984;-59
2021/08/29 06:56:17;;;;;;;13.85;11.22;;;;;;;19.02;70.52;100078.44;2017921;88;29406;-60
2021/08/29 06:59:19;;;;;;;13.98;10.10;;;;;;;19.21;69.54;100064.91;2013507;88;28272;-60
2021/08/29 07:02:21;;;;;;;13.03;10.65;;;;;;;19.39;69.50;100067.84;2018123;88;29441;-59
2021/08/29 07:05:25;;;;;;;11.65;10.13;;;;;;;19.54;68.95;100066.92;2016660;88;31769;-60
2021/08/29 07:08:27;;;;;;;12.25;10.05;;;;;;;19.67;68.61;100069.38;2017587;88;33627;-60
2021/08/29 07:11:29;;;;;;;12.73;9.88;;;;;;;20.07;68.61;100064.00;2074447;85;30474;-59
2021/08/29 07:14:32;;;;;;;10.45;9.45;;;;;;;20.48;67.89;100063.28;2077223;84;28246;-59
2021/08/29 07:17:35;;;;;;;10.03;9.13;;;;;;;20.74;66.74;100061.30;2080112;84;28734;-60
2021/08/29 07:20:38;;;;;;;11.00;9.13;;;;;;;21.22;66.47;100051.22;2040235;86;31805;-61
2021/08/29 07:23:42;;;;;;;11.53;9.15;;;;;;;21.77;65.12;100054.41;2001932;88;34162;-60
2021/08/29 07:26:45;;;;;;;9.60;8.60;;;;;;;21.95;64.56;100050.81;2042351;85;29383;-60
2021/08/29 07:29:49;;;;;;;11.05;8.78;;;;;;;22.12;64.09;100047.74;2077341;84;27756;-60
2021/08/29 07:32:53;;;;;;;9.20;8.38;;;;;;;22.56;64.43;100054.57;2081530;84;28753;-66
2021/08/29 07:35:55;;;;;;;10.55;7.90;;;;;;;23.01;63.40;100051.24;2081468;85;31078;-75
2021/08/29 07:38:57;;;;;;;9.50;8.05;;;;;;;23.44;62.58;100049.03;2079697;84;33748;-74
2021/08/29 07:41:59;;;;;;;8.88;8.05;;;;;;;23.76;61.53;100048.25;2067480;84;29368;-73
2021/08/29 07:45:01;;;;;;;8.18;7.37;;;;;;;23.92;60.44;100036.98;2073056;85;27706;-73
2021/08/29 07:48:04;;;;;;;8.00;7.17;;;;;;;24.07;60.27;100040.78;2072595;84;29549;-72
2021/08/29 07:51:06;;;;;;;8.80;7.83;;;;;;;24.24;60.02;100036.67;2068243;85;31806;-74
2021/08/29 07:54:08;;;;;;;9.30;7.33;;;;;;;24.49;59.48;100033.92;2037710;86;33845;-61
2021/08/29 07:57:10;;;;;;;9.75;8.60;;;;;;;24.57;58.27;100031.98;2025487;87;30287;-62
2021/08/29 08:00:14;;;;;;;9.53;8.63;;;;;;;24.64;57.83;100037.65;2083683;85;27617;-61
2021/08/29 08:03:17;;;;;;;9.13;8.23;;;;;;;24.82;57.26;100029.77;2078567;85;29578;-61
2021/08/29 08:06:19;;;;;;;8.53;7.60;;;;;;;24.88;57.27;100033.14;2074953;85;31023;-61
2021/08/29 08:09:21;;;;;;;9.15;7.20;;;;;;;24.88;56.63;100031.28;2081309;84;34164;-61
2021/08/29 08:12:27;;;;;;;8.65;6.90;;;;;;;24.90;56.58;100035.20;2085490;83;29385;-62
2021/08/29 08:15:29;;;;;;;7.87;7.17;;;;;;;24.93;55.87;100040.33;2095766;83;27657;-60
2021/08/29 08:18:30;;;;;;;8.33;7.53;;;;;;;24.90;55.22;100034.36;2109376;83;28662;-61
2021/08/29 08:21:32;;;;;;;7.62;6.92;;;;;;;24.91;54.97;100037.41;2085742;84;31125;-61
2021/08/29 08:24:34;;;;;;;8.93;7.42;;;;;;;25.01;55.19;100035.33;2095746;83;33807;-62
2021/08/29 08:27:36;;;;;;;8.45;7.65;;;;;;;25.18;54.66;100034.73;2083611;83;29718;-62
2021/08/29 08:30:38;;;;;;;9.68;7.05;;;;;;;25.18;54.23;100031.98;2109507;83;27693;-61
2021/08/29 08:33:40;;;;;;;7.50;6.70;;;;;;;25.25;54.37;100031.62;2125224;83;28680;-61
2021/08/29 08:36:42;;;;;;;8.45;7.55;;;;;;;25.25;53.65;100031.62;2124867;83;32229;-62
2021/08/29 08:39:45;;;;;;;9.45;6.92;;;;;;;25.19;53.89;100029.59;2124958;83;33501;-61
2021/08/29 08:42:47;;;;;;;7.28;6.58;;;;;;;25.14;53.18;100034.77;2125029;83;30312;-61
2021/08/29 08:45:49;;;;;;;7.62;6.22;;;;;;;24.92;53.50;100029.03;2125444;83;27757;-61
2021/08/29 08:48:52;;;;;;;7.40;6.53;;;;;;;24.86;53.88;100029.72;2124871;83;28774;-61
2021/08/29 08:51:57;;;;;;;7.33;6.72;;;;;;;24.77;53.46;100028.05;2123638;83;31909;-61
2021/08/29 08:55:01;;;;;;;6.97;6.30;;;;;;;24.65;53.51;100020.19;2124837;83;34204;-61
2021/08/29 08:58:03;;;;;;;7.05;6.22;;;;;;;24.55;53.55;100024.98;2125373;83;29304;-61
2021/08/29 09:01:07;;;;;;;6.53;5.92;;;;;;;24.50;53.64;100031.48;2124975;83;27682;-61
2021/08/29 09:04:11;;;;;;;7.95;6.12;;;;;;;24.40;53.39;100025.70;2125530;83;28790;-61
2021/08/29 09:07:13;;;;;;;10.78;6.78;;;;;;;24.28;53.38;100020.25;2125333;83;31888;-61
2021/08/29 09:10:15;;;;;;;7.70;5.92;;;;;;;24.32;53.73;100027.59;2124979;83;35120;-62
2021/08/29 09:13:17;;;;;;;10.80;6.62;;;;;;;24.28;53.10;100023.83;2109714;82;29764;-63
2021/08/29 09:16:25;;;;;;;6.65;6.05;;;;;;;24.23;53.49;100022.64;2102904;84;27689;-61
2021/08/29 09:19:26;;;;;;;6.47;5.58;;;;;;;24.22;53.63;100017.70;2099863;84;28648;-62
2021/08/29 09:22:28;;;;;;;6.37;5.62;;;;;;;24.22;53.66;100012.22;2102177;84;32259;-78
2021/08/29 09:25:33;;;;;;;7.45;5.25;;;;;;;24.24;53.54;100015.61;2083621;84;34344;-76
2021/08/29 09:28:35;;;;;;;5.95;5.12;;;;;;;24.20;53.20;100017.01;2087600;84;29396;-76
2021/08/29 09:31:48;;;;;;;6.22;5.17;;;;;;;24.10;52.78;100016.31;2100310;84;27738;-69
2021/08/29 09:34:58;;;;;;;6.20;5.60;;;;;;;24.08;53.15;100012.89;2107855;84;28659;-67
2021/08/29 09:38:00;;;;;;;5.95;5.45;;;;;;;24.16;53.01;100009.32;2102741;84;31192;-66
2021/08/29 09:41:02;;;;;;;4.62;4.17;;;;;;;24.16;52.56;100007.42;2097433;84;33042;-68
2021/08/29 09:44:14;;;;;;;4.87;4.47;;;;;;;24.15;52.65;100004.88;2086796;84;28746;-67
2021/08/29 09:47:16;;;;;;;5.15;4.65;;;;;;;24.18;52.45;100009.48;2109800;82;27682;-67
2021/08/29 09:50:22;;;;;;;5.03;4.50;;;;;;;24.24;52.28;100006.56;2064703;84;28701;-69
2021/08/29 09:53:24;;;;;;;5.25;4.75;;;;;;;24.25;52.31;100006.91;2096972;84;31773;-68
2021/08/29 09:56:29;;;;;;;6.17;4.83;;;;;;;24.30;52.11;99996.80;2073859;84;33002;-68
2021/08/29 09:59:49;;;;;;;4.78;4.33;;;;;;;24.35;51.85;100004.82;2104406;84;30371;-67
2021/08/29 10:03:06;;;;;;;4.62;4.22;;;;;;;24.41;51.57;100008.25;2097195;84;27706;-67
2021/08/29 10:06:22;;;;;;;5.22;4.72;;;;;;;24.42;51.12;100006.34;2103272;84;29502;-67
2021/08/29 10:09:27;;;;;;;4.53;4.12;;;;;;;24.41;51.37;100003.27;2102488;84;31893;-66
2021/08/29 10:12:29;;;;;;;4.90;4.25;;;;;;;24.45;51.31;100001.90;2139237;82;33780;-66
2021/08/29 10:15:34;;;;;;;22.00;19.70;;;;;;;24.46;51.18;100002.77;2141616;82;30173;-67
2021/08/29 10:18:40;;;;;;;7.50;5.22;;;;;;;24.32;50.94;100007.94;2097507;83;27675;-66
2021/08/29 10:21:42;;;;;;;4.15;3.70;;;;;;;24.20;50.96;100007.92;2084254;84;28653;-62
2021/08/29 10:24:46;;;;;;;4.53;3.52;;;;;;;24.01;50.55;100005.88;2028012;84;31762;-60
2021/08/29 10:28:13;;;;;;;3.75;3.45;;;;;;;23.75;50.40;100005.52;2040361;84;32982;-60
2021/08/29 10:31:18;;;;;;;4.45;3.60;;;;;;;23.49;50.39;100010.62;2131901;82;30538;-60
2021/08/29 10:34:22;;;;;;;3.58;3.10;;;;;;;23.25;50.43;100013.27;2113895;82;27642;-64
2021/08/29 10:37:24;;;;;;;4.95;3.62;;;;;;;23.10;50.70;100004.81;2109197;83;29483;-61
2021/08/29 10:40:28;;;;;;;3.83;3.52;;;;;;;22.97;51.46;100002.56;2131376;83;33173;-61
2021/08/29 10:43:38;;;;;;;4.33;3.53;;;;;;;22.97;51.87;100001.20;2129968;82;32967;-61
2021/08/29 10:46:36;;;;;;;4.58;3.33;;;;;;;22.95;52.05;99997.25;2099227;82;29734;-60
2021/08/29 10:49:39;;;;;;;5.00;3.43;;;;;;;22.96;52.00;99996.75;2097209;82;27650;-60
2021/08/29 10:52:41;;;;;;;3.50;3.17;;;;;;;22.91;52.07;99987.69;2098459;82;29517;-60
2021/08/29 10:55:43;;;;;;;4.10;3.47;;;;;;;22.90;52.45;99982.72;2109065;82;32060;-63
2021/08/29 10:58:49;;;;;;;3.77;3.47;;;;;;;22.99;52.69;99981.41;2107163;83;33717;-61
2021/08/29 11:01:58;;;;;;;5.37;3.95;;;;;;;23.02;52.74;99985.15;2119892;83;29357;-61
2021/08/29 11:05:00;;;;;;;4.83;3.72;;;;;;;23.03;52.60;99987.73;2107930;83;27638;-60
2021/08/29 11:08:23;;;;;;;6.62;3.83;;;;;;;23.03;52.53;99986.36;2104500;82;29509;-60
2021/08/29 11:11:30;;;;;;;3.52;3.22;;;;;;;23.15;52.82;99986.05;2115619;83;31028;-63
2021/08/29 11:14:53;;;;;;;4.30;3.10;;;;;;;23.31;52.76;99988.02;2122214;83;32960;-62
2021/08/29 11:18:01;;;;;;;3.52;3.22;;;;;;;23.34;52.04;99977.59;2108463;83;30588;-60
2021/08/29 11:21:03;;;;;;;3.45;3.15;;;;;;;23.33;51.57;99972.31;2122221;83;27864;-60
2021/08/29 11:24:05;;;;;;;3.92;3.10;;;;;;;23.43;51.80;99971.63;2117799;83;30027;-61
2021/08/29 11:27:13;;;;;;;3.72;3.33;;;;;;;23.56;51.07;99971.15;2127641;83;32333;-61
2021/08/29 11:30:18;;;;;;;3.55;3.12;;;;;;;23.58;50.82;99973.17;2078836;85;33928;-60
2021/08/29 11:33:26;;;;;;;4.92;3.10;;;;;;;23.65;50.78;99973.38;2103030;83;29332;-59
2021/08/29 11:36:29;;;;;;;3.12;2.65;;;;;;;23.80;51.22;99973.04;2062998;85;27705;-60
2021/08/29 11:39:37;;;;;;;3.67;3.35;;;;;;;23.96;50.86;99970.83;2020221;88;29359;-60
2021/08/29 11:42:40;;;;;;;4.05;3.65;;;;;;;24.07;50.38;99973.73;2041081;87;31909;-60
2021/08/29 11:45:47;;;;;;;3.30;3.00;;;;;;;24.11;50.34;99968.27;2016464;88;33016;-61
2021/08/29 11:48:58;;;;;;;3.75;2.70;;;;;;;24.15;49.93;99967.39;2067632;84;29325;-61
2021/08/29 11:52:00;;;;;;;3.92;2.60;;;;;;;24.07;49.63;99966.89;2092959;85;27638;-59
2021/08/29 11:55:10;;;;;;;2.75;2.55;;;;;;;24.09;49.59;99964.84;2096327;83;29917;-59
2021/08/29 11:58:20;;;;;;;3.27;3.08;;;;;;;24.07;49.06;99962.79;2085792;83;31459;-69
2021/08/29 12:01:26;;;;;;;3.20;2.75;;;;;;;24.00;49.32;99961.75;2112733;84;32822;-70
2021/08/29 12:04:28;;;;;;;3.70;3.40;;;;;;;23.96;49.03;99966.73;2112748;83;30285;-68
2021/08/29 12:07:32;;;;;;;3.08;2.87;;;;;;;23.86;48.69;99961.05;2075537;83;27657;-61
2021/08/29 12:10:34;;;;;;;8.10;7.30;;;;;;;23.77;48.82;99959.70;2095498;83;29884;-61
2021/08/29 12:13:36;;;;;;;2.98;2.67;;;;;;;23.65;49.32;99964.64;2064271;83;31070;-61
2021/08/29 12:16:38;;;;;;;3.17;2.55;;;;;;;23.64;49.33;99960.20;2072305;84;33825;-62
2021/08/29 12:19:41;;;;;;;3.22;2.92;;;;;;;23.61;49.58;99963.27;2080726;83;30593;-62
2021/08/29 12:22:44;;;;;;;3.08;2.80;;;;;;;23.54;49.23;99962.75;2092854;83;27736;-62
2021/08/29 12:25:59;;;;;;;4.15;2.62;;;;;;;23.41;48.86;99966.84;2140508;83;28786;-62
2021/08/29 12:29:03;;;;;;;3.15;2.85;;;;;;;23.34;49.12;99965.30;2117568;83;31135;-60
2021/08/29 12:32:08;;;;;;;3.27;2.97;;;;;;;23.24;48.95;99965.09;2070418;85;32990;-60
2021/08/29 12:35:12;;;;;;;3.00;2.67;;;;;;;22.94;49.45;99928.61;2117531;83;28786;-60
2021/08/29 12:38:25;;;;;;;3.12;2.83;;;;;;;23.13;49.24;99961.64;2137760;82;27629;-60
2021/08/29 12:41:27;;;;;;;3.50;3.10;;;;;;;23.13;49.67;99960.27;2110714;82;29421;-60
2021/08/29 12:44:33;;;;;;;4.85;3.15;;;;;;;23.10;49.54;99952.40;2048016;86;31983;-60
2021/08/29 12:47:36;;;;;;;3.65;2.87;;;;;;;23.01;49.57;99950.16;2046572;87;33849;-61
2021/08/29 12:50:51;;;;;;;3.05;2.77;;;;;;;22.95;49.50;99954.91;2071873;85;30250;-60
2021/08/29 12:54:00;;;;;;;2.77;2.47;;;;;;;22.90;49.93;99943.64;2077389;84;27708;-60
2021/08/29 12:57:06;;;;;;;3.22;2.77;;;;;;;22.88;50.19;99951.14;2070965;84;29890;-61
2021/08/29 13:00:19;;;;;;;3.95;2.80;;;;;;;22.87;50.06;99942.59;1998919;87;28507;-62
2021/08/29 13:03:26;;;;;;;3.27;2.87;;;;;;;22.88;50.18;99939.69;2035436;85;33074;-61
2021/08/29 13:06:33;;;;;;;3.12;2.90;;;;;;;22.86;49.81;99942.25;2039416;87;29468;-63
2021/08/29 13:09:35;;;;;;;3.12;2.83;;;;;;;22.85;50.25;99943.27;2058830;85;27815;-61
2021/08/29 13:12:39;;;;;;;2.75;2.42;;;;;;;22.85;50.01;99947.37;2046296;85;28099;-63
2021/08/29 13:15:42;;;;;;;2.92;2.50;;;;;;;22.79;49.80;99942.06;2031157;86;31581;-60
2021/08/29 13:18:47;;;;;;;4.28;3.45;;;;;;;22.73;49.85;99940.84;2028588;87;33286;-61
2021/08/29 13:21:59;;;;;;;4.83;3.00;;;;;;;22.74;50.20;99935.73;2030086;86;29422;-61
2021/08/29 13:25:26;;;;;;;2.65;2.45;;;;;;;22.79;50.59;99939.33;2053013;86;28042;-60
2021/08/29 13:28:31;;;;;;;3.65;3.20;;;;;;;22.80;50.04;99938.31;2086767;84;28859;-63
2021/08/29 13:31:35;;;;;;;2.62;2.42;;;;;;;22.82;50.40;99933.55;2099703;84;31867;-62
2021/08/29 13:34:38;;;;;;;3.27;2.65;;;;;;;22.86;50.49;99936.27;2099466;84;33129;-61
2021/08/29 13:37:55;;;;;;;3.83;2.92;;;;;;;22.82;50.08;99932.67;2099466;84;29374;-60
2021/08/29 13:41:01;;;;;;;2.58;2.37;;;;;;;22.81;50.33;99931.83;2067734;84;27757;-61
2021/08/29 13:44:04;;;;;;;2.67;2.45;;;;;;;22.84;50.55;99934.20;2035160;86;29533;-61
2021/08/29 13:47:06;;;;;;;3.27;2.60;;;;;;;22.83;50.61;99932.52;2057587;86;31849;-61
2021/08/29 13:50:09;;;;;;;4.42;3.20;;;;;;;22.72;50.43;99932.80;2055831;86;34157;-59
2021/08/29 13:53:13;;;;;;;3.83;3.37;;;;;;;22.56;50.49;99926.78;2045173;87;30055;-60
2021/08/29 13:56:35;;;;;;;4.70;2.95;;;;;;;22.45;50.60;99928.76;2076893;85;27565;-60
2021/08/29 13:59:38;;;;;;;5.33;3.87;;;;;;;22.36;50.88;99931.08;2144025;82;29486;-61
2021/08/29 14:02:40;;;;;;;3.90;3.60;;;;;;;22.30;51.01;99929.86;2127781;83;31690;-61
2021/08/29 14:05:43;;;;;;;5.75;3.83;;;;;;;22.29;51.17;99926.78;2127320;83;33781;-61
2021/08/29 14:08:46;;;;;;;5.20;3.67;;;;;;;22.30;51.19;99927.63;2127452;83;30012;-61
2021/08/29 14:11:48;;;;;;;4.75;4.00;;;;;;;22.28;51.49;99928.28;2128062;83;27701;-61